Jupiter Sun — D5GM7 — position and weather

sailwx.info

Track history (hours):
 
Tides and Currents Weather Stations Pressure Air Temp Water Temp Dewpoint Dewpoint Depression Visibility Wind Speed Wind Dir Waves Ship Positions

Jupiter Sun

Last reported at 2018-Apr-19 05:50 UTC. Time now 2018-Jul-21 22:32 UTC.
Position N 37°12' E 015°49'.
Warning: this ship's position is months out of date.

Length 244 m; draft 8 m.

Type: Tanker. MMSI: 636016504.

Date/timePositionNaut miles runAvg speedWind from/ knotsBaromVisibWave heightAir tempDewpointWater temp
2018-Apr-19 05:50N 37°12' E 015°49'310.0
2018-Apr-19 05:30N 37°13' E 015°45'8 8.7
2018-Apr-19 04:38N 37°16' E 015°37'0 2.3
2018-Apr-19 04:28N 37°16' E 015°36'0 0.7
2018-Apr-19 03:59N 37°16' E 015°37'0 0.7
2018-Apr-19 03:30N 37°16' E 015°37'7 0.4
2018-Apr-18 09:44N 37°13' E 015°45'0 0.6
2018-Apr-18 09:26N 37°13' E 015°45'1 0.6
2018-Apr-18 08:16N 37°13' E 015°46'0 0.4
2018-Apr-18 07:19N 37°13' E 015°46'0 1.1
2018-Apr-18 07:00N 37°13' E 015°46'1 2.5
2018-Apr-18 06:27N 37°14' E 015°44'5 0.6
2018-Apr-17 22:55N 37°18' E 015°41'1 0.4
2018-Apr-17 19:24N 37°17' E 015°42'0 0.3
2018-Apr-17 18:34N 37°17' E 015°43'0 0.2
2018-Apr-17 18:30N 37°17' E 015°43'0 0.2
2018-Apr-17 17:59N 37°17' E 015°43'0 0.2
2018-Apr-17 17:30N 37°17' E 015°43'0 0.3
2018-Apr-17 16:25N 37°17' E 015°43'0 0.3
2018-Apr-17 16:00N 37°17' E 015°43'0 0.4
2018-Apr-17 15:29N 37°16' E 015°43'0 0.4
2018-Apr-17 15:00N 37°16' E 015°44'0 0.4
2018-Apr-17 14:16N 37°16' E 015°44'0 0.5
2018-Apr-17 14:00N 37°16' E 015°44'0 0.5
2018-Apr-17 13:08N 37°16' E 015°45'0 0.4
2018-Apr-17 13:00N 37°16' E 015°45'0 0.4
2018-Apr-17 12:30N 37°16' E 015°45'0 0.4
2018-Apr-17 11:37N 37°16' E 015°45'0 0.4
2018-Apr-17 11:30N 37°16' E 015°45'0 0.3
2018-Apr-17 10:38N 37°16' E 015°46'0 0.1
2018-Apr-17 10:26N 37°15' E 015°46'0 0.2
2018-Apr-17 09:52N 37°15' E 015°46'0 0.3
2018-Apr-17 09:29N 37°15' E 015°46'0 0.4
2018-Apr-17 08:59N 37°15' E 015°45'0 1.0
2018-Apr-17 08:29N 37°15' E 015°45'1 1.9
2018-Apr-17 08:00N 37°15' E 015°44'10 2.4
2018-Apr-17 03:54N 37°12' E 015°32'1 0.4
2018-Apr-17 02:41N 37°12' E 015°33'1 0.1
2018-Apr-16 21:13N 37°12' E 015°32'0 0.5
2018-Apr-16 20:11N 37°12' E 015°32'5 4.8
2018-Apr-16 19:13N 37°08' E 015°33'2311.1
2018-Apr-16 17:07N 36°44' E 015°30'314.9
2018-Apr-16 16:55N 36°42' E 015°29'4310.7
2018-Apr-16 12:52N 36°03' E 015°04'610.5
2018-Apr-16 12:19N 35°58' E 015°01'510.1
2018-Apr-16 11:49N 35°53' E 014°58'3 8.8
2018-Apr-16 11:28N 35°51' E 014°56'5 8.0
2018-Apr-16 10:51N 35°49' E 014°50'1 1.8
2018-Apr-16 10:30N 35°50' E 014°50'0 0.1
2018-Apr-16 09:55N 35°50' E 014°50'0 0.1
2018-Apr-16 09:30N 35°50' E 014°50'0 0.0
2018-Apr-16 08:54N 35°50' E 014°50'0 0.1
2018-Apr-16 08:27N 35°50' E 014°50'0 0.0
2018-Apr-16 08:00N 35°50' E 014°50'0 0.0
2018-Apr-16 07:18N 35°50' E 014°50'0 0.1
2018-Apr-16 06:56N 35°50' E 014°50'0 0.1
2018-Apr-16 06:24N 35°50' E 014°50'0 0.1
2018-Apr-16 05:12N 35°49' E 014°50'0 0.1
2018-Apr-16 04:41N 35°49' E 014°50'0 0.1
2018-Apr-16 04:30N 35°49' E 014°50'0 0.1
2018-Apr-16 03:49N 35°50' E 014°50'0 0.2
2018-Apr-16 03:15N 35°50' E 014°50'0 0.1
2018-Apr-16 03:00N 35°50' E 014°50'0 0.1
2018-Apr-16 02:29N 35°50' E 014°50'0 0.0
2018-Apr-15 22:49N 35°50' E 014°49'0 0.1
2018-Apr-15 22:24N 35°50' E 014°49'0 0.0
2018-Apr-15 21:33N 35°50' E 014°49'0 0.1
2018-Apr-15 21:09N 35°50' E 014°49'0 0.0
2018-Apr-15 20:40N 35°50' E 014°49'0 0.1
2018-Apr-15 20:21N 35°50' E 014°49'0 0.1
2018-Apr-15 19:57N 35°50' E 014°49'0 0.0
2018-Apr-15 19:30N 35°50' E 014°49'0 0.1
2018-Apr-15 19:00N 35°50' E 014°49'0 0.1
2018-Apr-15 18:29N 35°50' E 014°49'0 0.1
2018-Apr-15 17:59N 35°50' E 014°49'0 0.1
2018-Apr-15 17:15N 35°50' E 014°49'0 0.1
2018-Apr-15 16:56N 35°50' E 014°49'0 0.0
2018-Apr-15 15:58N 35°50' E 014°49'0 0.0
2018-Apr-15 15:29N 35°50' E 014°49'0 0.1
2018-Apr-15 14:55N 35°50' E 014°49'0 0.0
2018-Apr-15 14:29N 35°50' E 014°49'0 0.0
2018-Apr-15 14:00N 35°50' E 014°49'0 0.1
2018-Apr-15 13:28N 35°50' E 014°49'0 0.0
2018-Apr-15 12:59N 35°50' E 014°49'0 0.1
2018-Apr-15 12:28N 35°50' E 014°49'0 0.1
2018-Apr-15 11:39N 35°49' E 014°49'0 0.0
2018-Apr-15 11:27N 35°49' E 014°49'0 0.0
2018-Apr-15 09:18N 35°49' E 014°49'0 0.1
2018-Apr-15 09:00N 35°49' E 014°49'0 0.1
2018-Apr-15 08:30N 35°49' E 014°49'0 0.0
2018-Apr-15 07:39N 35°49' E 014°49'0 0.1
2018-Apr-15 07:17N 35°49' E 014°49'0 0.0
2018-Apr-15 06:54N 35°49' E 014°49'0 0.1
2018-Apr-15 06:12N 35°49' E 014°49'0 0.0
2018-Apr-15 05:45N 35°49' E 014°49'0 0.1
2018-Apr-15 05:14N 35°49' E 014°49'0 0.1
2018-Apr-15 04:57N 35°49' E 014°49'0 0.1
2018-Apr-15 04:12N 35°49' E 014°49'0 0.3
2018-Apr-15 03:59N 35°49' E 014°49'0 0.1
2018-Apr-15 03:24N 35°49' E 014°49'0 0.1
2018-Apr-15 02:58N 35°49' E 014°49'0 0.1
2018-Apr-15 02:25N 35°49' E 014°49'0 0.0
2018-Apr-15 01:30N 35°49' E 014°49'0 0.0
2018-Apr-15 00:48N 35°49' E 014°49'0 0.1
2018-Apr-15 00:21N 35°49' E 014°49'0 0.1
2018-Apr-15 00:00N 35°49' E 014°49'0 0.0
2018-Apr-14 23:30N 35°49' E 014°49'0 0.0
2018-Apr-14 22:13N 35°49' E 014°49'0 0.0
2018-Apr-14 20:17N 35°49' E 014°49'0 0.0
2018-Apr-14 17:08N 35°49' E 014°49'0 0.0
2018-Apr-14 15:22N 35°50' E 014°49'0 0.0
2018-Apr-14 14:25N 35°49' E 014°49'0 0.0
2018-Apr-14 13:47N 35°49' E 014°49'0 0.0
2018-Apr-14 12:14N 35°49' E 014°49'0 0.1
2018-Apr-14 11:57N 35°49' E 014°49'0 0.3
2018-Apr-14 11:28N 35°50' E 014°49'0 0.1
2018-Apr-14 10:51N 35°49' E 014°49'0 0.2
2018-Apr-14 10:27N 35°49' E 014°49'0 0.0
2018-Apr-14 09:10N 35°49' E 014°49'0 0.4
2018-Apr-14 08:57N 35°49' E 014°49'0 0.2
2018-Apr-14 08:27N 35°49' E 014°49'0 0.1
2018-Apr-14 07:51N 35°49' E 014°49'0 0.1
2018-Apr-14 07:21N 35°49' E 014°49'0 0.1
2018-Apr-14 06:48N 35°49' E 014°49'0 0.1
2018-Apr-14 06:24N 35°49' E 014°49'0 0.0
2018-Apr-14 05:59N 35°49' E 014°49'0 0.2
2018-Apr-14 05:29N 35°50' E 014°49'0 0.3
2018-Apr-14 05:00N 35°49' E 014°49'0 0.1
2018-Apr-14 04:30N 35°49' E 014°49'0 0.0
2018-Apr-14 03:15N 35°49' E 014°49'0 0.3
2018-Apr-14 03:00N 35°50' E 014°49'0 0.0
2018-Apr-14 01:42N 35°50' E 014°49'0 0.0
2018-Apr-14 00:36N 35°50' E 014°49'0 0.2
2018-Apr-14 00:07N 35°49' E 014°49'0 0.0
2018-Apr-13 23:42N 35°49' E 014°49'0 0.0
2018-Apr-13 23:16N 35°49' E 014°49'0 0.0
2018-Apr-13 22:59N 35°49' E 014°49'0 0.0
2018-Apr-13 22:26N 35°49' E 014°49'0 0.0
2018-Apr-13 21:50N 35°49' E 014°49'0 0.0
2018-Apr-13 21:28N 35°49' E 014°49'0 0.1
2018-Apr-13 20:57N 35°49' E 014°49'0 0.0
2018-Apr-13 20:30N 35°49' E 014°49'1 0.9
2018-Apr-13 19:14N 35°50' E 014°48'2 7.9
2018-Apr-13 19:00N 35°52' E 014°47'2 4.2
2018-Apr-13 18:30N 35°53' E 014°45'0 0.1
2018-Apr-13 17:22N 35°53' E 014°45'0 0.0
2018-Apr-13 16:57N 35°53' E 014°45'0 0.0
2018-Apr-13 16:29N 35°53' E 014°45'0 0.0
2018-Apr-13 15:11N 35°53' E 014°45'0 0.0
2018-Apr-13 13:52N 35°53' E 014°45'0 0.0
2018-Apr-13 13:27N 35°53' E 014°45'0 0.0
2018-Apr-13 12:55N 35°53' E 014°45'0 0.0
2018-Apr-13 12:30N 35°53' E 014°45'0 0.0
2018-Apr-13 11:59N 35°53' E 014°45'0 0.0
2018-Apr-13 11:29N 35°53' E 014°45'0 0.0
2018-Apr-13 10:42N 35°53' E 014°45'0 0.0
2018-Apr-13 10:28N 35°53' E 014°45'0 0.0
2018-Apr-13 09:49N 35°53' E 014°45'0 0.0
2018-Apr-13 09:19N 35°53' E 014°45'0 0.1
2018-Apr-13 08:49N 35°53' E 014°45'0 0.0
2018-Apr-13 08:29N 35°53' E 014°45'0 0.1
2018-Apr-13 07:53N 35°53' E 014°45'0 0.1
2018-Apr-13 07:28N 35°53' E 014°45'0 0.0
2018-Apr-13 06:10N 35°53' E 014°45'0 0.1
2018-Apr-13 05:55N 35°53' E 014°45'0 0.0
2018-Apr-13 05:28N 35°53' E 014°45'0 0.0
2018-Apr-13 04:59N 35°53' E 014°45'0 0.0
2018-Apr-13 04:18N 35°53' E 014°45'0 0.0
2018-Apr-13 03:59N 35°53' E 014°45'0 0.1
2018-Apr-13 03:29N 35°53' E 014°45'0 0.0
2018-Apr-13 02:56N 35°53' E 014°45'0 0.0
2018-Apr-13 02:22N 35°53' E 014°45'0 0.0
2018-Apr-13 01:42N 35°53' E 014°45'0 0.0
2018-Apr-13 01:28N 35°53' E 014°45'0 0.0
2018-Apr-13 00:25N 35°53' E 014°45'0 0.0
2018-Apr-12 23:59N 35°53' E 014°45'0 0.0
2018-Apr-12 23:28N 35°53' E 014°45'0 0.0
2018-Apr-12 22:58N 35°53' E 014°45'0 0.1
2018-Apr-12 22:30N 35°53' E 014°45'0 0.0
2018-Apr-12 21:58N 35°53' E 014°45'0 0.1
2018-Apr-12 21:29N 35°53' E 014°45'0 0.1
2018-Apr-12 20:51N 35°53' E 014°45'0 0.0
2018-Apr-12 20:28N 35°53' E 014°45'0 0.0
2018-Apr-12 19:58N 35°53' E 014°45'0 0.1
2018-Apr-12 19:28N 35°53' E 014°45'0 0.0
2018-Apr-12 18:59N 35°53' E 014°45'0 0.0
2018-Apr-12 18:25N 35°53' E 014°45'0 0.4
2018-Apr-12 17:59N 35°52' E 014°45'0 0.4
2018-Apr-12 17:29N 35°53' E 014°45'0 0.1
2018-Apr-12 16:55N 35°53' E 014°45'2 4.1
2018-Apr-12 16:30N 35°54' E 014°44'5 9.6
2018-Apr-12 16:00N 35°59' E 014°45'510.2
2018-Apr-12 15:29N 36°03' E 014°49'510.3
2018-Apr-12 14:59N 36°08' E 014°52'65 9.9
2018-Apr-12 08:24N 37°05' E 015°30'510.0
2018-Apr-12 07:54N 37°10' E 015°29'10 0.3
2018-Apr-10 19:21N 37°11' E 015°17'24 8.4
2018-Apr-10 16:29N 37°08' E 015°47'  
Track history (hours):
 
Tides and Currents Weather Stations Pressure Air Temp Water Temp Dewpoint Dewpoint Depression Visibility Wind Speed Wind Dir Waves Ship Positions

Jupiter Sun

Last reported at 2018-Apr-19 05:50 UTC. Time now 2018-Jul-21 22:32 UTC.
Position N 37°12' E 015°49'.
Warning: this ship's position is months out of date.

Length 244 m; draft 8 m.

Type: Tanker. MMSI: 636016504.

Date/timePositionNaut miles runAvg speedWind from/ knotsBaromVisibWave heightAir tempDewpointWater temp
2018-Apr-19 05:50N 37°12' E 015°49'310.0
2018-Apr-19 05:30N 37°13' E 015°45'8 8.7
2018-Apr-19 04:38N 37°16' E 015°37'0 2.3
2018-Apr-19 04:28N 37°16' E 015°36'0 0.7
2018-Apr-19 03:59N 37°16' E 015°37'0 0.7
2018-Apr-19 03:30N 37°16' E 015°37'7 0.4
2018-Apr-18 09:44N 37°13' E 015°45'0 0.6
2018-Apr-18 09:26N 37°13' E 015°45'1 0.6
2018-Apr-18 08:16N 37°13' E 015°46'0 0.4
2018-Apr-18 07:19N 37°13' E 015°46'0 1.1
2018-Apr-18 07:00N 37°13' E 015°46'1 2.5
2018-Apr-18 06:27N 37°14' E 015°44'5 0.6
2018-Apr-17 22:55N 37°18' E 015°41'1 0.4
2018-Apr-17 19:24N 37°17' E 015°42'0 0.3
2018-Apr-17 18:34N 37°17' E 015°43'0 0.2
2018-Apr-17 18:30N 37°17' E 015°43'0 0.2
2018-Apr-17 17:59N 37°17' E 015°43'0 0.2
2018-Apr-17 17:30N 37°17' E 015°43'0 0.3
2018-Apr-17 16:25N 37°17' E 015°43'0 0.3
2018-Apr-17 16:00N 37°17' E 015°43'0 0.4
2018-Apr-17 15:29N 37°16' E 015°43'0 0.4
2018-Apr-17 15:00N 37°16' E 015°44'0 0.4
2018-Apr-17 14:16N 37°16' E 015°44'0 0.5
2018-Apr-17 14:00N 37°16' E 015°44'0 0.5
2018-Apr-17 13:08N 37°16' E 015°45'0 0.4
2018-Apr-17 13:00N 37°16' E 015°45'0 0.4
2018-Apr-17 12:30N 37°16' E 015°45'0 0.4
2018-Apr-17 11:37N 37°16' E 015°45'0 0.4
2018-Apr-17 11:30N 37°16' E 015°45'0 0.3
2018-Apr-17 10:38N 37°16' E 015°46'0 0.1
2018-Apr-17 10:26N 37°15' E 015°46'0 0.2
2018-Apr-17 09:52N 37°15' E 015°46'0 0.3
2018-Apr-17 09:29N 37°15' E 015°46'0 0.4
2018-Apr-17 08:59N 37°15' E 015°45'0 1.0
2018-Apr-17 08:29N 37°15' E 015°45'1 1.9
2018-Apr-17 08:00N 37°15' E 015°44'10 2.4
2018-Apr-17 03:54N 37°12' E 015°32'1 0.4
2018-Apr-17 02:41N 37°12' E 015°33'1 0.1
2018-Apr-16 21:13N 37°12' E 015°32'0 0.5
2018-Apr-16 20:11N 37°12' E 015°32'5 4.8
2018-Apr-16 19:13N 37°08' E 015°33'2311.1
2018-Apr-16 17:07N 36°44' E 015°30'314.9
2018-Apr-16 16:55N 36°42' E 015°29'4310.7
2018-Apr-16 12:52N 36°03' E 015°04'610.5
2018-Apr-16 12:19N 35°58' E 015°01'510.1
2018-Apr-16 11:49N 35°53' E 014°58'3 8.8
2018-Apr-16 11:28N 35°51' E 014°56'5 8.0
2018-Apr-16 10:51N 35°49' E 014°50'1 1.8
2018-Apr-16 10:30N 35°50' E 014°50'0 0.1
2018-Apr-16 09:55N 35°50' E 014°50'0 0.1
2018-Apr-16 09:30N 35°50' E 014°50'0 0.0
2018-Apr-16 08:54N 35°50' E 014°50'0 0.1
2018-Apr-16 08:27N 35°50' E 014°50'0 0.0
2018-Apr-16 08:00N 35°50' E 014°50'0 0.0
2018-Apr-16 07:18N 35°50' E 014°50'0 0.1
2018-Apr-16 06:56N 35°50' E 014°50'0 0.1
2018-Apr-16 06:24N 35°50' E 014°50'0 0.1
2018-Apr-16 05:12N 35°49' E 014°50'0 0.1
2018-Apr-16 04:41N 35°49' E 014°50'0 0.1
2018-Apr-16 04:30N 35°49' E 014°50'0 0.1
2018-Apr-16 03:49N 35°50' E 014°50'0 0.2
2018-Apr-16 03:15N 35°50' E 014°50'0 0.1
2018-Apr-16 03:00N 35°50' E 014°50'0 0.1
2018-Apr-16 02:29N 35°50' E 014°50'0 0.0
2018-Apr-15 22:49N 35°50' E 014°49'0 0.1
2018-Apr-15 22:24N 35°50' E 014°49'0 0.0
2018-Apr-15 21:33N 35°50' E 014°49'0 0.1
2018-Apr-15 21:09N 35°50' E 014°49'0 0.0
2018-Apr-15 20:40N 35°50' E 014°49'0 0.1
2018-Apr-15 20:21N 35°50' E 014°49'0 0.1
2018-Apr-15 19:57N 35°50' E 014°49'0 0.0
2018-Apr-15 19:30N 35°50' E 014°49'0 0.1
2018-Apr-15 19:00N 35°50' E 014°49'0 0.1
2018-Apr-15 18:29N 35°50' E 014°49'0 0.1
2018-Apr-15 17:59N 35°50' E 014°49'0 0.1
2018-Apr-15 17:15N 35°50' E 014°49'0 0.1
2018-Apr-15 16:56N 35°50' E 014°49'0 0.0
2018-Apr-15 15:58N 35°50' E 014°49'0 0.0
2018-Apr-15 15:29N 35°50' E 014°49'0 0.1
2018-Apr-15 14:55N 35°50' E 014°49'0 0.0
2018-Apr-15 14:29N 35°50' E 014°49'0 0.0
2018-Apr-15 14:00N 35°50' E 014°49'0 0.1
2018-Apr-15 13:28N 35°50' E 014°49'0 0.0
2018-Apr-15 12:59N 35°50' E 014°49'0 0.1
2018-Apr-15 12:28N 35°50' E 014°49'0 0.1
2018-Apr-15 11:39N 35°49' E 014°49'0 0.0
2018-Apr-15 11:27N 35°49' E 014°49'0 0.0
2018-Apr-15 09:18N 35°49' E 014°49'0 0.1
2018-Apr-15 09:00N 35°49' E 014°49'0 0.1
2018-Apr-15 08:30N 35°49' E 014°49'0 0.0
2018-Apr-15 07:39N 35°49' E 014°49'0 0.1
2018-Apr-15 07:17N 35°49' E 014°49'0 0.0
2018-Apr-15 06:54N 35°49' E 014°49'0 0.1
2018-Apr-15 06:12N 35°49' E 014°49'0 0.0
2018-Apr-15 05:45N 35°49' E 014°49'0 0.1
2018-Apr-15 05:14N 35°49' E 014°49'0 0.1
2018-Apr-15 04:57N 35°49' E 014°49'0 0.1
2018-Apr-15 04:12N 35°49' E 014°49'0 0.3
2018-Apr-15 03:59N 35°49' E 014°49'0 0.1
2018-Apr-15 03:24N 35°49' E 014°49'0 0.1
2018-Apr-15 02:58N 35°49' E 014°49'0 0.1
2018-Apr-15 02:25N 35°49' E 014°49'0 0.0
2018-Apr-15 01:30N 35°49' E 014°49'0 0.0
2018-Apr-15 00:48N 35°49' E 014°49'0 0.1
2018-Apr-15 00:21N 35°49' E 014°49'0 0.1
2018-Apr-15 00:00N 35°49' E 014°49'0 0.0
2018-Apr-14 23:30N 35°49' E 014°49'0 0.0
2018-Apr-14 22:13N 35°49' E 014°49'0 0.0
2018-Apr-14 20:17N 35°49' E 014°49'0 0.0
2018-Apr-14 17:08N 35°49' E 014°49'0 0.0
2018-Apr-14 15:22N 35°50' E 014°49'0 0.0
2018-Apr-14 14:25N 35°49' E 014°49'0 0.0
2018-Apr-14 13:47N 35°49' E 014°49'0 0.0
2018-Apr-14 12:14N 35°49' E 014°49'0 0.1
2018-Apr-14 11:57N 35°49' E 014°49'0 0.3
2018-Apr-14 11:28N 35°50' E 014°49'0 0.1
2018-Apr-14 10:51N 35°49' E 014°49'0 0.2
2018-Apr-14 10:27N 35°49' E 014°49'0 0.0
2018-Apr-14 09:10N 35°49' E 014°49'0 0.4
2018-Apr-14 08:57N 35°49' E 014°49'0 0.2
2018-Apr-14 08:27N 35°49' E 014°49'0 0.1
2018-Apr-14 07:51N 35°49' E 014°49'0 0.1
2018-Apr-14 07:21N 35°49' E 014°49'0 0.1
2018-Apr-14 06:48N 35°49' E 014°49'0 0.1
2018-Apr-14 06:24N 35°49' E 014°49'0 0.0
2018-Apr-14 05:59N 35°49' E 014°49'0 0.2
2018-Apr-14 05:29N 35°50' E 014°49'0 0.3
2018-Apr-14 05:00N 35°49' E 014°49'0 0.1
2018-Apr-14 04:30N 35°49' E 014°49'0 0.0
2018-Apr-14 03:15N 35°49' E 014°49'0 0.3
2018-Apr-14 03:00N 35°50' E 014°49'0 0.0
2018-Apr-14 01:42N 35°50' E 014°49'0 0.0
2018-Apr-14 00:36N 35°50' E 014°49'0 0.2
2018-Apr-14 00:07N 35°49' E 014°49'0 0.0
2018-Apr-13 23:42N 35°49' E 014°49'0 0.0
2018-Apr-13 23:16N 35°49' E 014°49'0 0.0
2018-Apr-13 22:59N 35°49' E 014°49'0 0.0
2018-Apr-13 22:26N 35°49' E 014°49'0 0.0
2018-Apr-13 21:50N 35°49' E 014°49'0 0.0
2018-Apr-13 21:28N 35°49' E 014°49'0 0.1
2018-Apr-13 20:57N 35°49' E 014°49'0 0.0
2018-Apr-13 20:30N 35°49' E 014°49'1 0.9
2018-Apr-13 19:14N 35°50' E 014°48'2 7.9
2018-Apr-13 19:00N 35°52' E 014°47'2 4.2
2018-Apr-13 18:30N 35°53' E 014°45'0 0.1
2018-Apr-13 17:22N 35°53' E 014°45'0 0.0
2018-Apr-13 16:57N 35°53' E 014°45'0 0.0
2018-Apr-13 16:29N 35°53' E 014°45'0 0.0
2018-Apr-13 15:11N 35°53' E 014°45'0 0.0
2018-Apr-13 13:52N 35°53' E 014°45'0 0.0
2018-Apr-13 13:27N 35°53' E 014°45'0 0.0
2018-Apr-13 12:55N 35°53' E 014°45'0 0.0
2018-Apr-13 12:30N 35°53' E 014°45'0 0.0
2018-Apr-13 11:59N 35°53' E 014°45'0 0.0
2018-Apr-13 11:29N 35°53' E 014°45'0 0.0
2018-Apr-13 10:42N 35°53' E 014°45'0 0.0
2018-Apr-13 10:28N 35°53' E 014°45'0 0.0
2018-Apr-13 09:49N 35°53' E 014°45'0 0.0
2018-Apr-13 09:19N 35°53' E 014°45'0 0.1
2018-Apr-13 08:49N 35°53' E 014°45'0 0.0
2018-Apr-13 08:29N 35°53' E 014°45'0 0.1
2018-Apr-13 07:53N 35°53' E 014°45'0 0.1
2018-Apr-13 07:28N 35°53' E 014°45'0 0.0
2018-Apr-13 06:10N 35°53' E 014°45'0 0.1
2018-Apr-13 05:55N 35°53' E 014°45'0 0.0
2018-Apr-13 05:28N 35°53' E 014°45'0 0.0
2018-Apr-13 04:59N 35°53' E 014°45'0 0.0
2018-Apr-13 04:18N 35°53' E 014°45'0 0.0
2018-Apr-13 03:59N 35°53' E 014°45'0 0.1
2018-Apr-13 03:29N 35°53' E 014°45'0 0.0
2018-Apr-13 02:56N 35°53' E 014°45'0 0.0
2018-Apr-13 02:22N 35°53' E 014°45'0 0.0
2018-Apr-13 01:42N 35°53' E 014°45'0 0.0
2018-Apr-13 01:28N 35°53' E 014°45'0 0.0
2018-Apr-13 00:25N 35°53' E 014°45'0 0.0
2018-Apr-12 23:59N 35°53' E 014°45'0 0.0
2018-Apr-12 23:28N 35°53' E 014°45'0 0.0
2018-Apr-12 22:58N 35°53' E 014°45'0 0.1
2018-Apr-12 22:30N 35°53' E 014°45'0 0.0
2018-Apr-12 21:58N 35°53' E 014°45'0 0.1
2018-Apr-12 21:29N 35°53' E 014°45'0 0.1
2018-Apr-12 20:51N 35°53' E 014°45'0 0.0
2018-Apr-12 20:28N 35°53' E 014°45'0 0.0
2018-Apr-12 19:58N 35°53' E 014°45'0 0.1
2018-Apr-12 19:28N 35°53' E 014°45'0 0.0
2018-Apr-12 18:59N 35°53' E 014°45'0 0.0
2018-Apr-12 18:25N 35°53' E 014°45'0 0.4
2018-Apr-12 17:59N 35°52' E 014°45'0 0.4
2018-Apr-12 17:29N 35°53' E 014°45'0 0.1
2018-Apr-12 16:55N 35°53' E 014°45'2 4.1
2018-Apr-12 16:30N 35°54' E 014°44'5 9.6
2018-Apr-12 16:00N 35°59' E 014°45'510.2
2018-Apr-12 15:29N 36°03' E 014°49'510.3
2018-Apr-12 14:59N 36°08' E 014°52'65 9.9
2018-Apr-12 08:24N 37°05' E 015°30'510.0
2018-Apr-12 07:54N 37°10' E 015°29'10 0.3
2018-Apr-10 19:21N 37°11' E 015°17'24 8.4
2018-Apr-10 16:29N 37°08' E 015°47'  

Dump ship's entire track history